Главная страница
METAR-TAF:

METAR-TAF

Аэропорты :

Умео, Швеция

широта: 63-48N, долгота: 020-17E, высота над уровнем моря: 7 м

Текущие метеонаблюдения

Эта сводка был подготовлена 37 минут назад, в 18:50 UTC
Ветер 3 Узел от юго-юго-восточный
Температура 15°C
Влажность 72%
Давление 1011 hPa
Видимость 10 км и более
Нет облачности ниже 1500 м, и нет кучево-дождевой облачности

METAR: ESNU 131850Z 16003KT CAVOK 15/10 Q1011

Время: 21:27 (19:27 UTC)

Прогноз

Эта сводка был подготовлена 1 час и 57 минут назад, в 17:30 UTC
Прогноз действительный с 13-го 18 UTC до 14-го 03 UTC
Ветер 5 Узел от юго-юго-восточный
Видимость 10 км и более
Нет облачности ниже 1500 м, и нет кучево-дождевой облачности

TAF: ESNU 131730Z 1318/1403 15005KT CAVOK

Метеонаблюдения и прогнозы для более 4000 аэропортов (сводки METAR и TAF).

Имеющиеся станции представлены на карте желтыми и красными точками.

Чтобы увидеть название станции, наведите на нее мышь.

Затем щелкните, чтобы увидеть метеонаблюдения и метеопрогнозы.

Управление картой: чтобы увеличить масштаб, щелкните зеленые кнопки с черным крестиком; чтобы уменьшить масштаб, щелкните зеленую кнопку с тире; для просмотра соседних карт щелкайте зеленые стрелки.


METAR-TAF: